Bakersfield, CA (93303)

9:02 PM PDT on October 30, 2014 (GMT -0700)
North Hills | Change Station
CLOSE
Current Station
Personal Weather Station
Location: Bakersfield, CA
Elevation: 722 ft
Nearby Weather Stations

Elev 722 ft 35.45 °N, 119.02 °W | Updated 30 minutes ago

Partly Cloudy
Partly Cloudy
69.1 °F
Feels Like 69.1 °F
N
4.5
Wind Variable Wind from NW
Gusts 8.3 mph

Today
High -- | Low -- °F
--% Chance of Precip.
Yesterday
High -- | Low -- °F
Precip. -- in
7:15 AM 6:02 PM
Waxing Crescent, 51% visible
Pressure 29.89 in
Visibility 8.0 miles
Clouds Clear
Dew Point 44 °F
Humidity 40%
Rainfall 0.00 in
Snow Depth Not available.
UV 0 out of 12
Pollen 3.80 out of 12
Air Quality Not available.
Flu Activity Not available.
METAR KBFL 310354Z 01011KT 8SM CLR 22/06 A2990 RMK AO2 SLP120 T02170056

More Conditions Fewer Conditions

Pressure 29.89 in
Visibility 8.0 miles
Clouds Clear
Dew Point 44 °F
Humidity 40%
Rainfall 0.00 in
Snow Depth Not available.
UV 0 out of 12
Pollen 3.80 out of 12
Air Quality Not available.
Flu Activity Not available.
METAR KBFL 310354Z 01011KT 8SM CLR 22/06 A2990 RMK AO2 SLP120 T02170056

More Conditions Fewer Conditions

10-Day Weather Forecast

Almanac

Astronomy

Oct. 30, 2014 Rise Set
Actual Time
Civil Twilight
Nautical Twilight
Astronomical Twilight
Moon
Length of Visible Light
Length of Day
Tomorrow will be .
, % of the Moon is Illuminated

Today's Extremes

State Highs State Lows

Community

WunderPhotos

Upload Photos

1,766,563 photos uploaded!

WunderBlogs® & News

Nearby

Air Quality

  Air Quality AQ Index Pollutant
Not available.

Snow Depth

Station Depth Elevation

Earthquake Activity

City Distance Mag. Time & Date
Minimum magnitude displayed is 2.5.

Coastal Water Temperatures

Place Temperature

Nearby Weather Stations